createdAt,value
2019-03-11T00:00:45.599Z,3.20
2019-03-11T00:03:14.267Z,3.20
2019-03-11T00:05:43.045Z,3.20
2019-03-11T00:08:11.915Z,3.20
2019-03-11T00:10:40.599Z,3.30
2019-03-11T00:13:09.374Z,3.30
2019-03-11T00:15:38.174Z,3.30
2019-03-11T00:18:06.873Z,3.40
2019-03-11T00:20:35.545Z,3.40
2019-03-11T00:23:04.377Z,3.40
2019-03-11T00:25:33.049Z,3.50
2019-03-11T00:28:01.800Z,3.50
2019-03-11T00:30:30.507Z,3.60
2019-03-11T00:32:59.218Z,3.60
2019-03-11T00:35:27.995Z,3.60
2019-03-11T00:37:56.687Z,3.70
2019-03-11T00:40:25.467Z,3.70
2019-03-11T00:42:54.256Z,3.80
2019-03-11T00:45:24.366Z,3.80
2019-03-11T00:48:01.592Z,3.90
2019-03-11T00:50:23.721Z,3.90
2019-03-11T00:52:52.439Z,3.90
2019-03-11T00:55:21.192Z,3.90
2019-03-11T00:57:49.861Z,3.90
2019-03-11T01:00:23.558Z,4.00
2019-03-11T01:02:52.301Z,4.00
2019-03-11T01:05:20.979Z,3.90
2019-03-11T01:07:49.773Z,3.80
2019-03-11T01:10:18.478Z,3.70
2019-03-11T01:12:47.256Z,3.50
2019-03-11T01:15:16.090Z,3.30
2019-03-11T01:17:44.771Z,3.10
2019-03-11T01:20:13.485Z,2.90
2019-03-11T01:22:45.395Z,2.90
2019-03-11T01:25:14.128Z,2.80
2019-03-11T01:27:42.865Z,2.80
2019-03-11T01:30:12.046Z,2.80
2019-03-11T01:32:40.778Z,2.80
2019-03-11T01:35:09.553Z,2.80
2019-03-11T01:37:38.258Z,2.80
2019-03-11T01:40:08.728Z,2.80
2019-03-11T01:42:37.509Z,2.80
2019-03-11T01:45:06.666Z,2.70
2019-03-11T01:47:35.493Z,2.80
2019-03-11T01:50:04.717Z,2.90
2019-03-11T01:52:33.521Z,3.00
2019-03-11T01:55:02.295Z,3.00
2019-03-11T01:57:31.111Z,3.00
2019-03-11T01:59:59.799Z,3.10
2019-03-11T02:02:28.534Z,3.10
2019-03-11T02:04:57.272Z,3.20
2019-03-11T02:07:25.992Z,3.20
2019-03-11T02:09:54.739Z,3.30
2019-03-11T02:12:23.511Z,3.40
2019-03-11T02:14:52.332Z,3.30
2019-03-11T02:17:21.043Z,3.10
2019-03-11T02:19:49.732Z,3.00
2019-03-11T02:22:18.486Z,2.80
2019-03-11T02:24:47.243Z,2.80
2019-03-11T02:27:15.982Z,2.70
2019-03-11T02:29:44.849Z,2.70
2019-03-11T02:32:13.576Z,2.80
2019-03-11T02:34:42.275Z,2.90
2019-03-11T02:37:11.147Z,2.90
2019-03-11T02:39:39.869Z,3.00
2019-03-11T02:42:08.641Z,3.00
2019-03-11T02:44:37.482Z,3.10
2019-03-11T02:47:06.198Z,3.10
2019-03-11T02:49:34.896Z,3.10
2019-03-11T02:52:03.642Z,3.10
2019-03-11T02:54:32.322Z,3.10
2019-03-11T02:57:01.104Z,3.10
2019-03-11T02:59:29.843Z,3.10
2019-03-11T03:02:17.666Z,3.20
2019-03-11T03:04:50.219Z,3.20
2019-03-11T03:07:18.941Z,3.20
2019-03-11T03:09:48.895Z,3.20
2019-03-11T03:12:17.648Z,3.20
2019-03-11T03:14:47.978Z,3.20
2019-03-11T03:17:16.715Z,3.20
2019-03-11T03:19:45.427Z,3.10
2019-03-11T03:22:14.228Z,3.10
2019-03-11T03:24:42.925Z,3.10
2019-03-11T03:27:11.600Z,3.10
2019-03-11T03:29:40.350Z,3.10
2019-03-11T03:32:09.149Z,3.10
2019-03-11T03:34:37.888Z,3.10
2019-03-11T03:37:06.686Z,3.10
2019-03-11T03:39:35.385Z,3.00
2019-03-11T03:42:04.127Z,3.00
2019-03-11T03:44:32.804Z,3.00
2019-03-11T03:47:01.512Z,3.00
2019-03-11T03:49:30.273Z,2.90
2019-03-11T03:51:59.123Z,2.90
2019-03-11T03:54:27.997Z,2.90
2019-03-11T03:56:56.788Z,3.00
2019-03-11T03:59:25.625Z,2.90
2019-03-11T04:01:54.354Z,2.90
2019-03-11T04:04:23.234Z,3.00
2019-03-11T04:06:52.054Z,3.00
2019-03-11T04:09:20.881Z,3.00
2019-03-11T04:11:49.701Z,3.10
2019-03-11T04:14:18.380Z,3.10
2019-03-11T04:16:47.072Z,3.10
2019-03-11T04:19:15.790Z,3.20
2019-03-11T04:21:44.495Z,3.20
2019-03-11T04:24:13.220Z,3.20
2019-03-11T04:26:42.039Z,3.30
2019-03-11T04:29:10.801Z,3.30
2019-03-11T04:31:39.535Z,3.30
2019-03-11T04:34:08.439Z,3.40
2019-03-11T04:36:37.192Z,3.40
2019-03-11T04:39:06.665Z,3.40
2019-03-11T04:41:35.371Z,3.50
2019-03-11T04:44:06.552Z,3.50
2019-03-11T04:46:34.586Z,3.50
2019-03-11T04:49:03.277Z,3.50
2019-03-11T04:51:32.055Z,3.40
2019-03-11T04:54:00.838Z,3.40
2019-03-11T04:56:29.694Z,3.50
2019-03-11T04:59:10.853Z,3.40
2019-03-11T05:01:39.621Z,3.50
2019-03-11T05:04:08.275Z,3.60
2019-03-11T05:06:36.988Z,3.60
2019-03-11T05:09:05.756Z,3.50
2019-03-11T05:11:34.558Z,3.50
2019-03-11T05:14:03.234Z,3.50
2019-03-11T05:16:31.921Z,3.40
2019-03-11T05:19:00.611Z,3.40
2019-03-11T05:21:29.349Z,3.40
2019-03-11T05:23:58.109Z,3.40
2019-03-11T05:26:26.791Z,3.40
2019-03-11T05:28:55.569Z,3.40
2019-03-11T05:31:24.260Z,3.40
2019-03-11T05:33:52.988Z,3.30
2019-03-11T05:36:21.782Z,3.30
2019-03-11T05:38:50.499Z,3.30
2019-03-11T05:41:19.226Z,3.30
2019-03-11T05:43:47.961Z,3.30
2019-03-11T05:46:16.714Z,3.30
2019-03-11T05:48:45.375Z,3.30
2019-03-11T05:51:14.097Z,3.40
2019-03-11T05:53:42.778Z,3.40
2019-03-11T05:56:11.464Z,3.30
2019-03-11T05:58:40.176Z,3.20
2019-03-11T06:01:09.046Z,3.20
2019-03-11T06:03:37.730Z,3.20
2019-03-11T06:06:06.427Z,3.00
2019-03-11T06:08:35.309Z,3.00
2019-03-11T06:11:04.052Z,3.00
2019-03-11T06:13:36.219Z,3.10
2019-03-11T06:16:03.229Z,3.10
2019-03-11T06:18:52.180Z,3.10
2019-03-11T06:21:48.822Z,3.20
2019-03-11T06:24:17.526Z,3.20
2019-03-11T06:26:46.257Z,3.20
2019-03-11T06:29:15.103Z,3.30
2019-03-11T06:31:43.795Z,3.20
2019-03-11T06:34:12.501Z,3.20
2019-03-11T06:36:41.202Z,3.30
2019-03-11T06:39:10.092Z,3.20
2019-03-11T06:41:38.853Z,3.20
2019-03-11T06:44:07.709Z,3.20
2019-03-11T06:46:36.406Z,3.30
2019-03-11T06:49:05.242Z,3.20
2019-03-11T06:51:33.975Z,3.20
2019-03-11T06:54:02.888Z,3.40
2019-03-11T06:56:31.685Z,3.40
2019-03-11T06:59:00.650Z,3.40
2019-03-11T07:01:29.444Z,3.30
2019-03-11T07:03:58.202Z,3.30
2019-03-11T07:06:26.943Z,3.20
2019-03-11T07:08:55.846Z,3.10
2019-03-11T07:11:24.723Z,3.00
2019-03-11T07:13:53.426Z,3.00
2019-03-11T07:16:22.131Z,2.90
2019-03-11T07:18:50.856Z,2.80
2019-03-11T07:21:19.642Z,2.90
2019-03-11T07:23:48.349Z,3.00
2019-03-11T07:26:17.080Z,3.00
2019-03-11T07:28:45.771Z,3.00
2019-03-11T07:31:14.627Z,3.00
2019-03-11T07:33:43.314Z,3.00
2019-03-11T07:36:12.012Z,2.90
2019-03-11T07:38:40.736Z,3.00
2019-03-11T07:41:09.487Z,3.00
2019-03-11T07:43:38.217Z,3.00
2019-03-11T07:46:06.916Z,3.00
2019-03-11T07:48:35.630Z,3.10
2019-03-11T07:51:04.307Z,3.00
2019-03-11T07:53:33.037Z,3.00
2019-03-11T07:56:01.736Z,3.00
2019-03-11T07:58:30.514Z,3.00
2019-03-11T08:00:59.415Z,3.10
2019-03-11T08:03:28.090Z,3.10
2019-03-11T08:05:56.808Z,3.10
2019-03-11T08:08:25.484Z,3.20
2019-03-11T08:10:54.234Z,3.30
2019-03-11T08:13:23.036Z,3.40
2019-03-11T08:15:51.713Z,3.40
2019-03-11T08:18:20.608Z,3.30
2019-03-11T08:20:49.451Z,3.40
2019-03-11T08:23:18.221Z,3.40
2019-03-11T08:25:47.045Z,3.20
2019-03-11T08:28:15.819Z,3.10
2019-03-11T08:30:45.032Z,3.10
2019-03-11T08:33:13.946Z,3.10
2019-03-11T08:35:42.743Z,3.00
2019-03-11T08:38:11.539Z,2.90
2019-03-11T08:40:42.851Z,3.00
2019-03-11T08:43:10.968Z,2.90
2019-03-11T08:45:39.764Z,3.00
2019-03-11T08:48:08.604Z,2.90
2019-03-11T08:50:37.689Z,2.90
2019-03-11T08:53:06.646Z,2.80
2019-03-11T08:55:35.841Z,2.70
2019-03-11T08:58:05.011Z,2.80
2019-03-11T09:00:33.894Z,2.80
2019-03-11T09:03:02.643Z,2.80
2019-03-11T09:05:31.400Z,2.80
2019-03-11T09:08:00.185Z,2.90
2019-03-11T09:10:31.688Z,3.00
2019-03-11T09:13:00.678Z,3.00
2019-03-11T09:15:29.412Z,3.10
2019-03-11T09:17:58.466Z,3.20
2019-03-11T09:20:27.293Z,3.30
2019-03-11T09:22:56.035Z,3.40
2019-03-11T09:25:25.014Z,3.40
2019-03-11T09:27:53.714Z,3.50
2019-03-11T09:30:22.523Z,3.50
2019-03-11T09:32:51.431Z,3.50
2019-03-11T09:35:20.143Z,3.40
2019-03-11T09:37:48.815Z,3.50
2019-03-11T09:40:17.537Z,3.50
2019-03-11T09:42:46.274Z,3.50
2019-03-11T09:45:15.191Z,3.50
2019-03-11T09:47:43.861Z,3.60
2019-03-11T09:50:12.717Z,3.60
2019-03-11T09:52:41.499Z,3.60
2019-03-11T09:55:10.975Z,3.70
2019-03-11T09:57:42.968Z,3.80
2019-03-11T10:00:17.644Z,3.90
2019-03-11T10:02:52.307Z,4.00
2019-03-11T10:05:17.113Z,4.00
2019-03-11T10:07:45.899Z,4.10
2019-03-11T10:10:15.324Z,4.10
2019-03-11T10:12:43.991Z,4.20
2019-03-11T10:15:14.339Z,4.20
2019-03-11T10:17:43.041Z,4.30
2019-03-11T10:20:12.089Z,4.30
2019-03-11T10:22:40.836Z,4.30
2019-03-11T10:25:09.688Z,4.50
2019-03-11T10:27:38.408Z,4.50
2019-03-11T10:30:08.203Z,4.60
2019-03-11T10:32:36.968Z,4.60
2019-03-11T10:35:26.819Z,4.50
2019-03-11T10:37:38.300Z,4.40
2019-03-11T10:40:08.729Z,4.50
2019-03-11T10:42:37.462Z,4.50
2019-03-11T10:45:06.389Z,4.60
2019-03-11T10:47:35.191Z,4.70
2019-03-11T10:50:04.051Z,4.70
2019-03-11T10:52:32.747Z,4.80
2019-03-11T10:55:01.472Z,4.90
2019-03-11T10:57:30.197Z,5.00
2019-03-11T10:59:58.918Z,5.10
2019-03-11T11:02:27.657Z,5.30
2019-03-11T11:04:56.385Z,5.30
2019-03-11T11:07:25.099Z,5.30
2019-03-11T11:09:53.818Z,5.20
2019-03-11T11:12:22.493Z,5.30
2019-03-11T11:14:52.896Z,5.20
2019-03-11T11:17:21.718Z,5.30
2019-03-11T11:19:50.662Z,5.30
2019-03-11T11:22:19.459Z,5.30
2019-03-11T11:24:48.197Z,5.50
2019-03-11T11:27:16.953Z,5.60
2019-03-11T11:29:45.722Z,5.60
2019-03-11T11:32:14.579Z,5.60
2019-03-11T11:34:43.313Z,5.70
2019-03-11T11:37:12.203Z,5.70
2019-03-11T11:39:40.976Z,5.80
2019-03-11T11:42:09.862Z,5.80
2019-03-11T11:44:38.673Z,5.70
2019-03-11T11:47:07.508Z,5.70
2019-03-11T11:49:36.236Z,5.70
2019-03-11T11:52:05.410Z,5.80
2019-03-11T11:54:34.125Z,5.80
2019-03-11T11:57:05.474Z,5.90
2019-03-11T11:59:34.200Z,6.10
2019-03-11T12:02:04.206Z,6.30
2019-03-11T12:04:33.477Z,6.20
2019-03-11T12:07:02.194Z,6.00
2019-03-11T12:09:30.997Z,5.90
2019-03-11T12:12:00.047Z,5.70
2019-03-11T12:14:28.847Z,5.50
2019-03-11T12:16:57.710Z,5.30
2019-03-11T12:19:26.477Z,5.30
2019-03-11T12:21:55.349Z,5.50
2019-03-11T12:24:24.071Z,5.50
2019-03-11T12:26:52.825Z,5.60
2019-03-11T12:29:21.658Z,5.60
2019-03-11T12:31:50.589Z,5.50
2019-03-11T12:34:19.302Z,5.70
2019-03-11T12:36:50.873Z,5.60
2019-03-11T12:39:19.609Z,5.60
2019-03-11T12:41:48.371Z,5.60
2019-03-11T12:44:17.095Z,5.80
2019-03-11T12:46:46.026Z,6.00
2019-03-11T12:49:14.758Z,6.30
2019-03-11T12:51:49.642Z,6.50
2019-03-11T12:54:13.971Z,6.60
2019-03-11T12:56:42.708Z,6.50
2019-03-11T12:59:11.428Z,6.30
2019-03-11T13:01:40.633Z,5.80
2019-03-11T13:04:09.369Z,5.40
2019-03-11T13:06:38.070Z,5.10
2019-03-11T13:09:07.085Z,5.20
2019-03-11T13:11:35.778Z,5.30
2019-03-11T13:14:04.760Z,5.50
2019-03-11T13:16:33.476Z,5.60
2019-03-11T13:19:12.732Z,5.60
2019-03-11T13:21:35.998Z,5.70
2019-03-11T13:24:04.802Z,5.80
2019-03-11T13:26:33.540Z,5.80
2019-03-11T13:29:02.425Z,5.80
2019-03-11T13:31:31.207Z,5.80
2019-03-11T13:33:59.896Z,5.90
2019-03-11T13:36:28.674Z,6.00
2019-03-11T13:38:57.377Z,6.10
2019-03-11T13:41:26.063Z,6.10
2019-03-11T13:43:54.799Z,6.00
2019-03-11T13:46:23.509Z,5.80
2019-03-11T13:48:52.240Z,5.70
2019-03-11T13:51:20.943Z,5.70
2019-03-11T13:53:49.975Z,5.80
2019-03-11T13:56:18.687Z,5.80
2019-03-11T13:58:47.466Z,5.90
2019-03-11T14:01:16.665Z,5.90
2019-03-11T14:03:45.630Z,5.90
2019-03-11T14:06:14.420Z,6.00
2019-03-11T14:08:43.052Z,6.10
2019-03-11T14:11:11.907Z,6.20
2019-03-11T14:13:40.597Z,6.30
2019-03-11T14:16:09.318Z,6.40
2019-03-11T14:18:38.562Z,6.50
2019-03-11T14:21:07.266Z,6.60
2019-03-11T14:23:36.096Z,6.70
2019-03-11T14:26:04.928Z,6.80
2019-03-11T14:28:33.639Z,6.90
2019-03-11T14:31:02.332Z,6.80
2019-03-11T14:33:31.061Z,6.80
2019-03-11T14:35:59.846Z,6.50
2019-03-11T14:38:28.626Z,6.30
2019-03-11T14:40:57.351Z,6.10
2019-03-11T14:43:26.036Z,6.00
2019-03-11T14:45:54.748Z,6.00
2019-03-11T14:48:23.529Z,6.00
2019-03-11T14:50:53.159Z,6.00
2019-03-11T14:53:25.833Z,5.90
2019-03-11T14:55:54.554Z,5.80
2019-03-11T14:58:29.327Z,5.70
2019-03-11T15:00:53.774Z,5.70
2019-03-11T15:03:22.531Z,5.60
2019-03-11T15:05:53.472Z,5.60
2019-03-11T15:08:21.936Z,5.50
2019-03-11T15:10:59.383Z,5.40
2019-03-11T15:13:28.115Z,5.30
2019-03-11T15:16:17.575Z,5.20
2019-03-11T15:18:46.439Z,5.20
2019-03-11T15:21:15.424Z,5.20
2019-03-11T15:23:44.140Z,5.10
2019-03-11T15:26:12.924Z,5.00
2019-03-11T15:28:41.742Z,4.90
2019-03-11T15:31:13.608Z,4.90
2019-03-11T15:33:42.368Z,4.90
2019-03-11T15:36:11.225Z,4.80
2019-03-11T15:38:39.905Z,4.80
2019-03-11T15:41:08.627Z,4.70
2019-03-11T15:43:38.078Z,4.70
2019-03-11T15:46:06.880Z,4.80
2019-03-11T15:48:35.721Z,4.90
2019-03-11T15:51:04.561Z,5.10
2019-03-11T15:53:33.251Z,5.20
2019-03-11T15:56:02.041Z,5.30
2019-03-11T15:58:30.947Z,5.40
2019-03-11T16:00:59.632Z,5.40
2019-03-11T16:03:35.947Z,5.40
2019-03-11T16:06:00.032Z,5.40
2019-03-11T16:08:29.163Z,5.30
2019-03-11T16:10:58.336Z,5.30
2019-03-11T16:13:27.113Z,5.30
2019-03-11T16:15:55.853Z,5.20
2019-03-11T16:18:24.877Z,5.20
2019-03-11T16:20:53.840Z,5.10
2019-03-11T16:23:23.611Z,5.10
2019-03-11T16:25:52.491Z,5.10
2019-03-11T16:28:21.288Z,5.00
2019-03-11T16:30:49.978Z,5.00
2019-03-11T16:33:18.690Z,5.00
2019-03-11T16:35:47.485Z,4.90
2019-03-11T16:38:16.295Z,5.00
2019-03-11T16:40:45.135Z,5.00
2019-03-11T16:43:13.855Z,5.00
2019-03-11T16:45:42.832Z,5.10
2019-03-11T16:48:11.634Z,5.00
2019-03-11T16:50:40.643Z,5.00
2019-03-11T16:53:09.800Z,5.00
2019-03-11T16:55:39.313Z,5.00
2019-03-11T16:58:08.202Z,5.00
2019-03-11T17:00:38.517Z,4.90
2019-03-11T17:03:07.386Z,4.80
2019-03-11T17:05:36.214Z,4.70
2019-03-11T17:08:05.014Z,4.60
2019-03-11T17:10:33.808Z,4.50
2019-03-11T17:13:02.545Z,4.50
2019-03-11T17:15:31.378Z,4.50
2019-03-11T17:18:00.108Z,4.60
2019-03-11T17:20:28.934Z,4.60
2019-03-11T17:22:57.734Z,4.60
2019-03-11T17:25:26.460Z,4.70
2019-03-11T17:27:55.334Z,4.70
2019-03-11T17:30:24.840Z,4.80
2019-03-11T17:32:53.990Z,4.80
2019-03-11T17:35:22.726Z,4.90
2019-03-11T17:37:51.607Z,4.90
2019-03-11T17:40:20.619Z,4.90
2019-03-11T17:42:49.570Z,5.00
2019-03-11T17:45:18.362Z,5.00
2019-03-11T17:47:47.169Z,5.00
2019-03-11T17:50:16.220Z,5.10
2019-03-11T17:52:45.026Z,5.10
2019-03-11T17:55:16.747Z,5.20
2019-03-11T17:57:45.535Z,5.20
2019-03-11T18:00:19.089Z,5.20
2019-03-11T18:02:47.844Z,5.20
2019-03-11T18:05:16.678Z,5.30
2019-03-11T18:07:46.074Z,5.20
2019-03-11T18:10:14.865Z,5.20
2019-03-11T18:12:44.136Z,5.30
2019-03-11T18:15:13.254Z,5.30
2019-03-11T18:17:41.995Z,5.20
2019-03-11T18:20:11.419Z,5.20
2019-03-11T18:22:41.826Z,5.20
2019-03-11T18:28:35.057Z,5.10
2019-03-11T18:31:35.400Z,5.00
2019-03-11T18:35:20.272Z,5.00
2019-03-11T18:42:21.424Z,4.90
2019-03-11T18:44:43.311Z,4.90
2019-03-11T18:47:12.484Z,4.80
2019-03-11T18:49:41.458Z,4.90
2019-03-11T18:52:10.380Z,4.90
2019-03-11T18:54:39.530Z,4.90
2019-03-11T18:57:08.607Z,5.00
2019-03-11T18:59:37.647Z,5.00
2019-03-11T19:02:06.736Z,5.10
2019-03-11T19:04:49.562Z,5.10
2019-03-11T19:07:44.843Z,5.10
2019-03-11T19:10:15.076Z,5.20
2019-03-11T19:12:43.904Z,5.20
2019-03-11T19:15:14.371Z,5.20
2019-03-11T19:17:43.120Z,5.30
2019-03-11T19:20:22.421Z,5.20
2019-03-11T19:23:07.753Z,5.10
2019-03-11T19:25:37.864Z,5.00
2019-03-11T19:28:37.484Z,5.00
2019-03-11T19:30:53.349Z,5.00
2019-03-11T19:33:22.316Z,5.00
2019-03-11T19:35:51.519Z,5.00
2019-03-11T19:38:20.412Z,5.00
2019-03-11T19:40:49.505Z,5.00
2019-03-11T19:43:18.370Z,5.00
2019-03-11T19:45:47.396Z,4.90
2019-03-11T19:48:16.558Z,4.90
2019-03-11T19:50:45.459Z,4.90
2019-03-11T19:53:14.419Z,4.90
2019-03-11T19:55:43.442Z,5.00
2019-03-11T19:58:12.230Z,5.00
2019-03-11T20:00:41.035Z,5.00
2019-03-11T20:03:14.275Z,5.00
2019-03-11T20:05:40.165Z,5.00
2019-03-11T20:08:08.932Z,4.90
2019-03-11T20:10:37.788Z,5.00
2019-03-11T20:13:06.555Z,4.90
2019-03-11T20:15:35.387Z,4.90
2019-03-11T20:18:04.197Z,4.90
2019-03-11T20:20:32.989Z,4.90
2019-03-11T20:23:01.780Z,5.00
2019-03-11T20:25:30.722Z,4.90
2019-03-11T20:27:59.549Z,5.00
2019-03-11T20:30:28.522Z,4.90
2019-03-11T20:32:57.644Z,4.90
2019-03-11T20:35:32.387Z,5.00
2019-03-11T20:38:04.332Z,5.00
2019-03-11T20:40:33.096Z,5.00
2019-03-11T20:43:03.710Z,5.00
2019-03-11T20:45:32.582Z,5.00
2019-03-11T20:48:01.385Z,5.00
2019-03-11T20:50:41.535Z,5.00
2019-03-11T20:53:00.732Z,5.00
2019-03-11T20:55:29.607Z,5.00
2019-03-11T20:57:58.498Z,5.00
2019-03-11T21:00:27.386Z,5.00
2019-03-11T21:02:56.148Z,5.00
2019-03-11T21:05:26.420Z,5.00
2019-03-11T21:07:55.178Z,5.00
2019-03-11T21:10:23.987Z,5.00
2019-03-11T21:12:52.830Z,5.00
2019-03-11T21:15:21.657Z,5.00
2019-03-11T21:17:50.459Z,5.00
2019-03-11T21:20:19.265Z,5.00
2019-03-11T21:22:47.997Z,4.90
2019-03-11T21:25:16.943Z,5.00
2019-03-11T21:27:45.800Z,4.90
2019-03-11T21:30:16.545Z,4.90
2019-03-11T21:32:45.339Z,4.90
2019-03-11T21:35:14.486Z,5.00
2019-03-11T21:37:43.266Z,5.00
2019-03-11T21:40:13.647Z,5.00
2019-03-11T21:42:42.418Z,5.00
2019-03-11T21:45:12.071Z,5.10
2019-03-11T21:47:40.907Z,5.10
2019-03-11T21:50:13.019Z,5.10
2019-03-11T21:52:41.744Z,5.10
2019-03-11T21:55:10.565Z,5.10
2019-03-11T21:57:39.372Z,5.10
2019-03-11T22:00:09.901Z,5.10
2019-03-11T22:02:38.622Z,5.10
2019-03-11T22:05:07.702Z,5.10
2019-03-11T22:07:36.532Z,5.10
2019-03-11T22:10:05.518Z,5.10
2019-03-11T22:12:34.195Z,5.10
2019-03-11T22:15:02.897Z,5.10
2019-03-11T22:17:31.630Z,5.00
2019-03-11T22:20:00.420Z,5.00
2019-03-11T22:22:29.456Z,5.00
2019-03-11T22:24:58.217Z,5.00
2019-03-11T22:27:26.911Z,5.00
2019-03-11T22:29:55.627Z,5.00
2019-03-11T22:32:24.331Z,5.00
2019-03-11T22:34:53.050Z,5.00
2019-03-11T22:37:21.763Z,5.00
2019-03-11T22:39:50.504Z,4.90
2019-03-11T22:42:19.192Z,4.90
2019-03-11T22:44:47.859Z,4.90
2019-03-11T22:47:16.661Z,4.90
2019-03-11T22:49:45.338Z,4.80
2019-03-11T22:52:14.038Z,4.80
2019-03-11T22:54:42.731Z,4.80
2019-03-11T22:57:11.553Z,4.70
2019-03-11T22:59:40.267Z,4.70
2019-03-11T23:02:11.549Z,4.70
2019-03-11T23:04:39.379Z,4.70
2019-03-11T23:07:08.123Z,4.70
2019-03-11T23:09:36.867Z,4.70
2019-03-11T23:12:05.591Z,4.70
2019-03-11T23:14:34.290Z,4.70
2019-03-11T23:17:03.007Z,4.70
2019-03-11T23:19:31.712Z,4.70
2019-03-11T23:22:00.422Z,4.70
2019-03-11T23:24:29.267Z,4.60
2019-03-11T23:26:57.952Z,4.60
2019-03-11T23:29:26.696Z,4.60
2019-03-11T23:31:55.386Z,4.60
2019-03-11T23:34:24.111Z,4.60
2019-03-11T23:36:52.805Z,4.70
2019-03-11T23:39:21.639Z,4.70
2019-03-11T23:41:50.324Z,4.70
2019-03-11T23:44:19.023Z,4.70
2019-03-11T23:46:47.815Z,4.80
2019-03-11T23:49:16.640Z,4.80
2019-03-11T23:51:45.383Z,4.80
2019-03-11T23:54:14.163Z,4.80
2019-03-11T23:56:42.922Z,4.80
2019-03-11T23:59:11.633Z,4.80
